createdAt,value
2018-12-20T00:01:07.883Z,8.00
2018-12-20T00:03:36.101Z,8.10
2018-12-20T00:06:04.365Z,8.00
2018-12-20T00:08:32.554Z,8.10
2018-12-20T00:11:00.973Z,8.20
2018-12-20T00:13:29.386Z,8.20
2018-12-20T00:15:57.578Z,8.20
2018-12-20T00:18:25.978Z,8.10
2018-12-20T00:20:54.201Z,8.10
2018-12-20T00:23:22.393Z,8.20
2018-12-20T00:25:50.705Z,8.10
2018-12-20T00:28:18.929Z,8.30
2018-12-20T00:30:47.129Z,8.30
2018-12-20T00:33:16.341Z,8.20
2018-12-20T00:35:44.594Z,8.20
2018-12-20T00:38:12.891Z,8.30
2018-12-20T00:40:41.041Z,8.20
2018-12-20T00:43:09.220Z,8.20
2018-12-20T00:45:37.412Z,8.10
2018-12-20T00:48:05.648Z,8.10
2018-12-20T00:50:33.847Z,8.20
2018-12-20T00:53:02.136Z,8.20
2018-12-20T00:55:30.462Z,8.10
2018-12-20T01:04:53.099Z,8.00
2018-12-20T01:07:21.598Z,8.00
2018-12-20T01:09:49.953Z,8.00
2018-12-20T01:12:18.218Z,7.90
2018-12-20T01:14:46.541Z,8.00
2018-12-20T01:17:14.821Z,7.90
2018-12-20T01:19:43.202Z,7.90
2018-12-20T01:22:11.669Z,7.90
2018-12-20T01:24:40.070Z,7.90
2018-12-20T01:27:08.468Z,8.00
2018-12-20T01:29:36.950Z,8.00
2018-12-20T01:32:05.352Z,8.00
2018-12-20T01:34:33.828Z,8.10
2018-12-20T01:37:02.105Z,8.10
2018-12-20T01:39:30.512Z,8.10
2018-12-20T01:41:58.830Z,8.10
2018-12-20T01:44:27.293Z,8.00
2018-12-20T01:46:55.678Z,8.00
2018-12-20T01:49:24.187Z,8.10
2018-12-20T01:51:52.430Z,8.20
2018-12-20T01:54:20.974Z,8.20
2018-12-20T01:56:49.470Z,8.30
2018-12-20T01:59:17.882Z,8.20
2018-12-20T02:01:46.256Z,8.10
2018-12-20T02:04:14.677Z,8.10
2018-12-20T02:06:43.252Z,8.00
2018-12-20T02:09:11.602Z,8.10
2018-12-20T02:11:39.920Z,8.10
2018-12-20T02:14:08.191Z,8.10
2018-12-20T02:16:36.519Z,8.10
2018-12-20T02:19:04.964Z,8.00
2018-12-20T02:21:33.369Z,8.10
2018-12-20T02:24:01.869Z,8.10
2018-12-20T02:26:30.546Z,8.10
2018-12-20T02:28:58.962Z,8.00
2018-12-20T02:31:27.375Z,8.00
2018-12-20T02:33:55.821Z,8.10
2018-12-20T02:36:24.458Z,8.20
2018-12-20T02:38:52.714Z,8.30
2018-12-20T02:41:21.407Z,8.30
2018-12-20T02:43:50.083Z,8.30
2018-12-20T02:46:18.336Z,8.30
2018-12-20T02:48:46.733Z,8.30
2018-12-20T02:51:15.391Z,8.40
2018-12-20T02:53:43.854Z,8.50
2018-12-20T02:56:12.126Z,8.50
2018-12-20T02:58:40.369Z,8.40
2018-12-20T03:01:08.866Z,8.50
2018-12-20T03:03:37.563Z,8.40
2018-12-20T03:06:06.281Z,8.40
2018-12-20T03:08:35.147Z,8.40
2018-12-20T03:11:03.580Z,8.40
2018-12-20T03:13:32.052Z,8.40
2018-12-20T03:16:00.776Z,8.40
2018-12-20T03:18:29.581Z,8.40
2018-12-20T03:20:58.158Z,8.50
2018-12-20T03:23:26.695Z,8.40
2018-12-20T03:25:55.244Z,8.50
2018-12-20T03:28:23.504Z,8.50
2018-12-20T03:30:51.760Z,8.50
2018-12-20T03:33:20.060Z,8.50
2018-12-20T03:35:48.531Z,8.50
2018-12-20T03:38:16.818Z,8.50
2018-12-20T03:40:45.169Z,8.50
2018-12-20T03:43:13.590Z,8.50
2018-12-20T03:45:42.176Z,8.60
2018-12-20T03:48:10.493Z,8.50
2018-12-20T03:50:38.808Z,8.50
2018-12-20T03:53:07.125Z,8.50
2018-12-20T03:55:35.316Z,8.40
2018-12-20T03:58:03.696Z,8.60
2018-12-20T04:00:32.100Z,8.60
2018-12-20T04:03:00.512Z,8.60
2018-12-20T04:05:28.717Z,8.60
2018-12-20T04:07:57.061Z,8.60
2018-12-20T04:10:25.442Z,8.60
2018-12-20T04:12:53.862Z,8.70
2018-12-20T04:15:22.158Z,8.60
2018-12-20T04:17:50.491Z,8.60
2018-12-20T04:20:19.058Z,8.60
2018-12-20T04:22:47.732Z,8.60
2018-12-20T04:25:15.995Z,8.70
2018-12-20T04:27:44.358Z,8.60
2018-12-20T04:30:12.670Z,8.70
2018-12-20T04:32:40.877Z,8.70
2018-12-20T04:35:09.099Z,8.70
2018-12-20T04:37:37.352Z,8.70
2018-12-20T04:40:05.851Z,8.70
2018-12-20T04:42:34.303Z,8.70
2018-12-20T04:45:02.984Z,8.70
2018-12-20T04:47:31.514Z,8.70
2018-12-20T04:50:00.018Z,8.70
2018-12-20T04:52:28.436Z,8.70
2018-12-20T04:54:56.920Z,8.80
2018-12-20T04:57:25.233Z,8.70
2018-12-20T04:59:53.550Z,8.60
2018-12-20T05:02:22.051Z,8.60
2018-12-20T05:04:50.371Z,8.70
2018-12-20T05:07:18.788Z,8.70
2018-12-20T05:09:47.228Z,8.60
2018-12-20T05:12:15.464Z,8.70
2018-12-20T05:14:43.814Z,8.60
2018-12-20T05:17:12.352Z,8.60
2018-12-20T05:19:40.837Z,8.60
2018-12-20T05:22:09.236Z,8.60
2018-12-20T05:24:37.560Z,8.60
2018-12-20T05:27:05.816Z,8.50
2018-12-20T05:29:34.238Z,8.50
2018-12-20T05:32:02.518Z,8.60
2018-12-20T05:34:30.820Z,8.60
2018-12-20T05:36:59.273Z,8.60
2018-12-20T05:39:27.669Z,8.60
2018-12-20T05:41:55.923Z,8.60
2018-12-20T05:44:24.138Z,8.50
2018-12-20T05:46:52.404Z,8.60
2018-12-20T05:49:20.609Z,8.60
2018-12-20T05:51:49.036Z,8.50
2018-12-20T05:54:17.320Z,8.50
2018-12-20T05:56:45.774Z,8.50
2018-12-20T05:59:14.107Z,8.40
2018-12-20T06:01:42.320Z,8.50
2018-12-20T06:04:11.654Z,8.50
2018-12-20T06:06:39.953Z,8.50
2018-12-20T06:09:09.031Z,8.50
2018-12-20T06:11:37.356Z,8.40
2018-12-20T06:14:05.579Z,8.40
2018-12-20T06:16:34.046Z,8.40
2018-12-20T06:19:02.368Z,8.40
2018-12-20T06:21:30.654Z,8.50
2018-12-20T06:23:58.878Z,8.50
2018-12-20T06:26:27.285Z,8.50
2018-12-20T06:28:55.476Z,8.50
2018-12-20T06:31:23.682Z,8.50
2018-12-20T06:33:52.016Z,8.50
2018-12-20T06:36:20.178Z,8.50
2018-12-20T06:38:48.395Z,8.50
2018-12-20T06:41:16.614Z,8.50
2018-12-20T06:43:44.751Z,8.50
2018-12-20T06:46:20.867Z,8.50
2018-12-20T06:48:44.250Z,8.40
2018-12-20T06:51:12.401Z,8.40
2018-12-20T06:53:40.718Z,8.30
2018-12-20T06:56:09.220Z,8.30
2018-12-20T06:58:37.487Z,8.30
2018-12-20T07:01:05.792Z,8.40
2018-12-20T07:03:33.933Z,8.30
2018-12-20T07:06:02.228Z,8.20
2018-12-20T07:08:30.456Z,8.20
2018-12-20T07:10:58.622Z,8.30
2018-12-20T07:13:26.876Z,8.20
2018-12-20T07:15:55.054Z,8.20
2018-12-20T07:18:23.272Z,8.30
2018-12-20T07:20:51.461Z,8.20
2018-12-20T07:23:19.630Z,8.30
2018-12-20T07:25:47.926Z,8.30
2018-12-20T07:28:16.126Z,8.30
2018-12-20T07:30:44.387Z,8.30
2018-12-20T07:33:12.542Z,8.30
2018-12-20T07:35:40.749Z,8.30
2018-12-20T07:38:09.007Z,8.30
2018-12-20T07:40:38.171Z,8.20
2018-12-20T07:43:06.746Z,8.20
2018-12-20T07:45:35.022Z,8.30
2018-12-20T07:48:03.272Z,8.30
2018-12-20T07:50:31.457Z,8.30
2018-12-20T07:52:59.689Z,8.30
2018-12-20T07:55:27.909Z,8.30
2018-12-20T07:57:56.135Z,8.30
2018-12-20T08:00:24.388Z,8.30
2018-12-20T08:02:52.631Z,8.30
2018-12-20T08:05:20.844Z,8.30
2018-12-20T08:07:49.001Z,8.40
2018-12-20T08:10:17.162Z,8.40
2018-12-20T08:12:45.376Z,8.40
2018-12-20T08:15:13.642Z,8.50
2018-12-20T08:17:41.930Z,8.50
2018-12-20T08:20:10.289Z,8.60
2018-12-20T08:22:38.913Z,8.60
2018-12-20T08:25:07.263Z,8.50
2018-12-20T08:27:35.442Z,8.60
2018-12-20T08:30:03.932Z,8.50
2018-12-20T08:32:32.397Z,8.50
2018-12-20T08:35:00.549Z,8.50
2018-12-20T08:37:28.742Z,8.60
2018-12-20T08:39:57.949Z,8.80
2018-12-20T08:42:26.124Z,8.70
2018-12-20T08:44:54.322Z,8.80
2018-12-20T08:47:22.534Z,8.80
2018-12-20T08:49:50.708Z,8.90
2018-12-20T08:52:18.855Z,8.90
2018-12-20T08:54:47.047Z,8.90
2018-12-20T08:57:15.233Z,8.90
2018-12-20T08:59:43.394Z,9.00
2018-12-20T09:02:11.609Z,9.10
2018-12-20T09:04:39.781Z,9.10
2018-12-20T09:07:07.965Z,9.20
2018-12-20T09:09:36.154Z,9.20
2018-12-20T09:12:11.066Z,9.20
2018-12-20T09:14:39.266Z,9.30
2018-12-20T09:17:07.490Z,9.20
2018-12-20T09:19:35.672Z,9.20
2018-12-20T09:22:04.010Z,9.20
2018-12-20T09:24:32.230Z,9.30
2018-12-20T09:27:00.503Z,9.20
2018-12-20T09:29:28.714Z,9.20
2018-12-20T09:31:56.926Z,9.20
2018-12-20T09:34:25.221Z,9.10
2018-12-20T09:36:53.607Z,9.10
2018-12-20T09:39:21.818Z,9.00
2018-12-20T09:41:49.995Z,9.00
2018-12-20T09:44:18.250Z,9.00
2018-12-20T09:46:46.477Z,9.10
2018-12-20T09:49:14.815Z,9.10
2018-12-20T09:51:43.064Z,9.10
2018-12-20T09:54:11.261Z,9.10
2018-12-20T09:56:39.570Z,9.10
2018-12-20T09:59:07.783Z,9.10
2018-12-20T10:01:35.967Z,9.10
2018-12-20T10:04:04.451Z,9.10
2018-12-20T10:06:32.612Z,9.10
2018-12-20T10:09:00.756Z,9.10
2018-12-20T10:11:28.938Z,9.20
2018-12-20T10:13:57.111Z,9.30
2018-12-20T10:16:25.404Z,9.30
2018-12-20T10:18:53.639Z,9.40
2018-12-20T10:21:21.973Z,9.50
2018-12-20T10:23:50.532Z,9.50
2018-12-20T10:26:18.734Z,9.50
2018-12-20T10:28:46.934Z,9.60
2018-12-20T10:31:15.229Z,9.60
2018-12-20T10:33:43.559Z,9.70
2018-12-20T10:36:11.843Z,9.60
2018-12-20T10:38:41.714Z,9.70
2018-12-20T10:41:10.387Z,9.80
2018-12-20T10:43:38.542Z,9.70
2018-12-20T10:46:06.771Z,9.60
2018-12-20T10:48:34.973Z,9.60
2018-12-20T10:51:03.157Z,9.50
2018-12-20T10:53:31.370Z,9.60
2018-12-20T10:55:59.568Z,9.70
2018-12-20T10:58:27.743Z,9.80
2018-12-20T11:01:01.213Z,9.80
2018-12-20T11:03:34.864Z,9.80
2018-12-20T11:06:07.457Z,10.00
2018-12-20T11:08:39.892Z,10.30
2018-12-20T11:11:10.056Z,10.40
2018-12-20T11:13:38.277Z,10.40
2018-12-20T11:16:06.513Z,10.50
2018-12-20T11:18:34.729Z,10.70
2018-12-20T11:21:02.951Z,10.80
2018-12-20T11:23:31.147Z,10.80
2018-12-20T11:25:59.378Z,10.90
2018-12-20T11:28:27.564Z,10.90
2018-12-20T11:30:55.802Z,10.90
2018-12-20T11:33:24.027Z,11.00
2018-12-20T11:35:52.308Z,10.80
2018-12-20T11:38:20.554Z,10.50
2018-12-20T11:40:48.861Z,10.40
2018-12-20T11:43:17.061Z,10.30
2018-12-20T11:45:45.263Z,10.10
2018-12-20T11:48:13.502Z,10.00
2018-12-20T11:50:41.705Z,10.00
2018-12-20T11:53:09.912Z,10.00
2018-12-20T11:55:38.111Z,10.00
2018-12-20T11:58:06.333Z,10.00
2018-12-20T12:00:36.745Z,10.10
2018-12-20T12:03:05.396Z,10.30
2018-12-20T12:05:33.807Z,10.40
2018-12-20T12:08:02.079Z,10.50
2018-12-20T12:10:30.457Z,11.10
2018-12-20T12:12:59.047Z,11.70
2018-12-20T12:15:27.354Z,12.20
2018-12-20T12:17:55.530Z,12.10
2018-12-20T12:20:23.732Z,11.90
2018-12-20T12:22:54.168Z,13.10
2018-12-20T12:25:23.777Z,16.20
2018-12-20T12:27:52.251Z,15.30
2018-12-20T12:30:20.859Z,15.60
2018-12-20T12:32:49.497Z,14.30
2018-12-20T12:35:18.051Z,14.00
2018-12-20T12:37:46.680Z,14.10
2018-12-20T12:40:15.158Z,13.80
2018-12-20T12:42:43.687Z,13.80
2018-12-20T12:45:12.496Z,13.40
2018-12-20T12:47:46.603Z,12.90
2018-12-20T12:50:15.049Z,12.70
2018-12-20T12:52:43.704Z,12.60
2018-12-20T12:55:12.657Z,12.20
2018-12-20T12:57:41.314Z,11.80
2018-12-20T13:00:12.921Z,12.10
2018-12-20T13:02:41.293Z,12.30
2018-12-20T13:05:09.700Z,12.60
2018-12-20T13:07:37.892Z,12.80
2018-12-20T13:10:06.914Z,12.20
2018-12-20T13:12:35.405Z,13.30
2018-12-20T13:15:04.504Z,14.00
2018-12-20T13:17:32.705Z,13.70
2018-12-20T13:20:00.973Z,13.30
2018-12-20T13:22:29.239Z,13.00
2018-12-20T13:24:57.481Z,12.90
2018-12-20T13:27:25.736Z,12.50
2018-12-20T13:29:53.985Z,12.30
2018-12-20T13:32:22.279Z,12.00
2018-12-20T13:34:50.465Z,11.90
2018-12-20T13:37:18.708Z,11.60
2018-12-20T13:39:46.889Z,11.30
2018-12-20T13:42:15.051Z,11.20
2018-12-20T13:44:43.342Z,11.20
2018-12-20T13:47:11.618Z,11.00
2018-12-20T13:49:39.840Z,11.00
2018-12-20T13:52:08.042Z,10.90
2018-12-20T13:54:36.309Z,10.90
2018-12-20T13:57:04.518Z,10.80
2018-12-20T13:59:32.778Z,10.90
2018-12-20T14:02:01.012Z,10.80
2018-12-20T14:04:29.243Z,10.80
2018-12-20T14:06:57.409Z,10.70
2018-12-20T14:09:25.597Z,10.70
2018-12-20T14:11:53.825Z,10.70
2018-12-20T14:14:23.140Z,10.60
2018-12-20T14:16:51.494Z,10.60
2018-12-20T14:19:19.725Z,10.60
2018-12-20T14:21:48.046Z,10.50
2018-12-20T14:24:16.413Z,10.60
2018-12-20T14:26:44.735Z,10.50
2018-12-20T14:29:12.979Z,10.40
2018-12-20T14:31:41.510Z,10.40
2018-12-20T14:34:09.871Z,10.40
2018-12-20T14:36:38.295Z,10.40
2018-12-20T14:39:07.535Z,10.30
2018-12-20T14:41:35.831Z,10.20
2018-12-20T14:44:04.379Z,10.20
2018-12-20T14:46:32.850Z,10.00
2018-12-20T14:49:01.118Z,10.00
2018-12-20T14:51:29.372Z,9.90
2018-12-20T14:53:57.619Z,9.90
2018-12-20T14:56:25.870Z,9.90
2018-12-20T14:58:54.192Z,9.70
2018-12-20T15:01:22.463Z,9.80
2018-12-20T15:03:51.037Z,9.70
2018-12-20T15:06:19.290Z,9.70
2018-12-20T15:08:47.870Z,9.80
2018-12-20T15:11:16.322Z,9.80
2018-12-20T15:13:44.636Z,9.70
2018-12-20T15:16:12.917Z,9.60
2018-12-20T15:18:47.717Z,9.60
2018-12-20T15:21:11.524Z,9.70
2018-12-20T15:23:39.896Z,9.70
2018-12-20T15:26:08.156Z,9.70
2018-12-20T15:28:36.502Z,9.60
2018-12-20T15:31:04.791Z,9.60
2018-12-20T15:33:33.678Z,9.70
2018-12-20T15:36:02.128Z,9.70
2018-12-20T15:38:30.374Z,9.70
2018-12-20T15:40:58.634Z,9.70
2018-12-20T15:43:26.902Z,9.70
2018-12-20T15:45:55.131Z,9.70
2018-12-20T15:48:23.372Z,9.70
2018-12-20T15:50:51.732Z,9.70
2018-12-20T15:53:20.113Z,9.70
2018-12-20T15:55:48.329Z,9.70
2018-12-20T15:58:16.615Z,9.60
2018-12-20T16:00:44.863Z,9.60
2018-12-20T16:03:13.075Z,9.60
2018-12-20T16:05:41.364Z,9.60
2018-12-20T16:08:09.688Z,9.60
2018-12-20T16:10:37.966Z,9.60
2018-12-20T16:13:06.228Z,9.50
2018-12-20T16:15:34.504Z,9.40
2018-12-20T16:18:02.895Z,9.50
2018-12-20T16:20:31.141Z,9.50
2018-12-20T16:22:59.432Z,9.40
2018-12-20T16:25:27.695Z,9.40
2018-12-20T16:27:55.956Z,9.40
2018-12-20T16:30:24.410Z,9.50
2018-12-20T16:32:52.760Z,9.40
2018-12-20T16:35:21.076Z,9.40
2018-12-20T16:37:49.467Z,9.40
2018-12-20T16:40:17.738Z,9.40
2018-12-20T16:42:46.071Z,9.40
2018-12-20T16:45:14.625Z,9.30
2018-12-20T16:47:43.022Z,9.40
2018-12-20T16:50:11.349Z,9.30
2018-12-20T16:52:39.711Z,9.40
2018-12-20T16:55:08.562Z,9.40
2018-12-20T16:57:37.252Z,9.40
2018-12-20T17:00:07.379Z,9.40
2018-12-20T17:02:35.771Z,9.40
2018-12-20T17:05:04.189Z,9.40
2018-12-20T17:07:32.451Z,9.40
2018-12-20T17:10:00.763Z,9.30
2018-12-20T17:12:29.018Z,9.30
2018-12-20T17:14:57.427Z,9.30
2018-12-20T17:17:25.730Z,9.30
2018-12-20T17:19:54.012Z,9.30
2018-12-20T17:22:22.725Z,9.40
2018-12-20T17:24:50.992Z,9.40
2018-12-20T17:27:19.288Z,9.30
2018-12-20T17:29:47.654Z,9.30
2018-12-20T17:32:16.082Z,9.40
2018-12-20T17:34:44.416Z,9.40
2018-12-20T17:37:12.710Z,9.30
2018-12-20T17:39:40.968Z,9.40
2018-12-20T17:42:09.288Z,9.40
2018-12-20T17:44:37.550Z,9.30
2018-12-20T17:47:06.186Z,9.40
2018-12-20T17:49:34.538Z,9.40
2018-12-20T17:52:02.825Z,9.40
2018-12-20T17:54:31.086Z,9.40
2018-12-20T17:56:59.392Z,9.40
2018-12-20T17:59:27.701Z,9.50
2018-12-20T18:01:56.062Z,9.50
2018-12-20T18:04:24.343Z,9.50
2018-12-20T18:06:52.719Z,9.50
2018-12-20T18:09:21.115Z,9.40
2018-12-20T18:11:49.429Z,9.40
2018-12-20T18:14:17.818Z,9.50
2018-12-20T18:16:46.090Z,9.50
2018-12-20T18:19:14.356Z,9.40
2018-12-20T18:21:42.747Z,9.50
2018-12-20T18:24:11.066Z,9.40
2018-12-20T18:26:39.378Z,9.50
2018-12-20T18:29:07.842Z,9.50
2018-12-20T18:31:36.112Z,9.50
2018-12-20T18:34:04.526Z,9.60
2018-12-20T18:36:32.919Z,9.60
2018-12-20T18:39:01.194Z,9.60
2018-12-20T18:41:29.575Z,9.50
2018-12-20T18:43:57.855Z,9.60
2018-12-20T18:46:26.252Z,9.60
2018-12-20T18:48:54.607Z,9.60
2018-12-20T18:51:22.951Z,9.60
2018-12-20T18:53:51.241Z,9.60
2018-12-20T18:56:19.548Z,9.50
2018-12-20T18:58:47.992Z,9.50
2018-12-20T19:01:16.380Z,9.50
2018-12-20T19:03:44.844Z,9.50
2018-12-20T19:06:13.220Z,9.50
2018-12-20T19:08:41.490Z,9.50
2018-12-20T19:11:09.826Z,9.60
2018-12-20T19:13:38.106Z,9.60
2018-12-20T19:16:06.393Z,9.60
2018-12-20T19:18:34.735Z,9.60
2018-12-20T19:21:03.009Z,9.50
2018-12-20T19:23:31.299Z,9.50
2018-12-20T19:25:59.801Z,9.40
2018-12-20T19:28:28.065Z,9.40
2018-12-20T19:30:56.392Z,9.50
2018-12-20T19:33:24.679Z,9.40
2018-12-20T19:35:52.936Z,9.40
2018-12-20T19:38:21.318Z,9.40
2018-12-20T19:40:49.682Z,9.40
2018-12-20T19:43:17.971Z,9.40
2018-12-20T19:45:46.468Z,9.30
2018-12-20T19:48:14.896Z,9.30
2018-12-20T19:50:43.212Z,9.30
2018-12-20T19:53:11.531Z,9.20
2018-12-20T19:55:39.871Z,9.30
2018-12-20T19:58:08.276Z,9.20
2018-12-20T20:00:36.593Z,9.30
2018-12-20T20:03:05.094Z,9.20
2018-12-20T20:05:33.411Z,9.30
2018-12-20T20:08:01.729Z,9.30
2018-12-20T20:10:30.002Z,9.40
2018-12-20T20:12:58.484Z,9.40
2018-12-20T20:15:27.049Z,9.40
2018-12-20T20:17:55.410Z,9.50
2018-12-20T20:20:23.701Z,9.50
2018-12-20T20:22:52.087Z,9.40
2018-12-20T20:25:20.417Z,9.40
2018-12-20T20:27:48.844Z,9.40
2018-12-20T20:30:17.408Z,9.40
2018-12-20T20:32:45.773Z,9.40
2018-12-20T20:35:14.112Z,9.40
2018-12-20T20:37:42.454Z,9.50
2018-12-20T20:40:11.570Z,9.50
2018-12-20T20:42:40.016Z,9.40
2018-12-20T20:45:08.470Z,9.50
2018-12-20T20:47:36.773Z,9.50
2018-12-20T20:50:07.036Z,9.50
2018-12-20T20:52:35.502Z,9.50
2018-12-20T20:55:05.789Z,9.50
2018-12-20T20:57:34.358Z,9.40
2018-12-20T21:00:02.998Z,9.40
2018-12-20T21:02:31.426Z,9.50
2018-12-20T21:04:59.878Z,9.50
2018-12-20T21:07:28.290Z,9.50
2018-12-20T21:09:56.813Z,9.50
2018-12-20T21:12:25.129Z,9.60
2018-12-20T21:14:53.411Z,9.60
2018-12-20T21:17:21.672Z,9.60
2018-12-20T21:19:50.378Z,9.60
2018-12-20T21:22:18.933Z,9.50
2018-12-20T21:24:47.348Z,9.50
2018-12-20T21:27:15.678Z,9.50
2018-12-20T21:29:44.080Z,9.50
2018-12-20T21:32:12.383Z,9.50
2018-12-20T21:34:40.898Z,9.50
2018-12-20T21:37:09.269Z,9.50
2018-12-20T21:39:37.666Z,9.50
2018-12-20T21:42:06.215Z,9.50
2018-12-20T21:44:34.872Z,9.50
2018-12-20T21:47:03.376Z,9.50
2018-12-20T21:49:31.666Z,9.50
2018-12-20T21:52:01.574Z,9.50
2018-12-20T21:54:30.100Z,9.60
2018-12-20T21:56:58.323Z,9.60
2018-12-20T21:59:26.586Z,9.60
2018-12-20T22:01:55.235Z,9.50
2018-12-20T22:04:24.014Z,9.60
2018-12-20T22:06:52.478Z,9.50
2018-12-20T22:09:20.905Z,9.60
2018-12-20T22:11:49.409Z,9.70
2018-12-20T22:14:18.078Z,9.50
2018-12-20T22:16:46.241Z,9.60
2018-12-20T22:19:14.506Z,9.60
2018-12-20T22:21:43.833Z,9.60
2018-12-20T22:24:12.087Z,9.70
2018-12-20T22:26:40.268Z,9.70
2018-12-20T22:29:08.487Z,9.70
2018-12-20T22:31:36.784Z,9.60
2018-12-20T22:34:05.112Z,9.60
2018-12-20T22:36:33.321Z,9.70
2018-12-20T22:39:01.553Z,9.60
2018-12-20T22:41:29.818Z,9.60
2018-12-20T22:43:58.024Z,9.70
2018-12-20T22:46:26.192Z,9.70
2018-12-20T22:48:54.485Z,9.60
2018-12-20T22:51:22.701Z,9.70
2018-12-20T22:53:50.992Z,9.70
2018-12-20T22:56:19.230Z,9.60
2018-12-20T22:58:47.475Z,9.70
2018-12-20T23:01:15.837Z,9.60
2018-12-20T23:03:43.997Z,9.60
2018-12-20T23:06:12.176Z,9.60
2018-12-20T23:08:40.412Z,9.60
2018-12-20T23:11:08.629Z,9.70
2018-12-20T23:13:36.918Z,9.60
2018-12-20T23:16:05.219Z,9.70
2018-12-20T23:18:33.382Z,9.60
2018-12-20T23:21:04.994Z,9.60
2018-12-20T23:23:31.761Z,9.50
2018-12-20T23:26:00.006Z,9.50
2018-12-20T23:28:28.231Z,9.50
2018-12-20T23:30:56.461Z,9.60
2018-12-20T23:33:24.636Z,9.60
2018-12-20T23:35:52.896Z,9.60
2018-12-20T23:38:21.121Z,9.60
2018-12-20T23:40:49.330Z,9.50
2018-12-20T23:43:17.549Z,9.50
2018-12-20T23:45:45.824Z,9.50
2018-12-20T23:48:14.001Z,9.40
2018-12-20T23:50:42.132Z,9.40
2018-12-20T23:53:10.366Z,9.30
2018-12-20T23:55:38.571Z,9.40
2018-12-20T23:58:06.838Z,9.40
